sensor_id;sensor_type;location;lat;lon;timestamp;temperature;humidity
25050;DHT22;13046;49.814;9.918;2022-09-13T04:29:08;14.70;99.90
25050;DHT22;13046;49.814;9.918;2022-09-13T04:31:33;11.40;99.90
25050;DHT22;13046;49.814;9.918;2022-09-13T04:33:59;11.30;99.90
25050;DHT22;13046;49.814;9.918;2022-09-13T04:36:25;11.30;99.90
25050;DHT22;13046;49.814;9.918;2022-09-13T04:38:51;11.30;99.90
25050;DHT22;13046;49.814;9.918;2022-09-13T04:41:16;11.30;99.90
25050;DHT22;13046;49.814;9.918;2022-09-13T04:43:42;11.30;99.90
25050;DHT22;13046;49.814;9.918;2022-09-13T04:46:08;11.20;99.90
25050;DHT22;13046;49.814;9.918;2022-09-13T04:48:34;11.30;99.90
25050;DHT22;13046;49.814;9.918;2022-09-13T04:53:27;11.30;99.90
25050;DHT22;13046;49.814;9.918;2022-09-13T04:56:03;11.40;99.90
25050;DHT22;13046;49.814;9.918;2022-09-13T04:58:29;11.40;99.90
25050;DHT22;13046;49.814;9.918;2022-09-13T05:01:03;11.40;99.90
25050;DHT22;13046;49.814;9.918;2022-09-13T05:03:30;11.50;99.90
25050;DHT22;13046;49.814;9.918;2022-09-13T05:06:03;11.40;99.90
25050;DHT22;13046;49.814;9.918;2022-09-13T05:08:29;11.50;99.90
25050;DHT22;13046;49.814;9.918;2022-09-13T05:10:55;11.50;99.90
25050;DHT22;13046;49.814;9.918;2022-09-13T05:13:20;11.50;99.90
25050;DHT22;13046;49.814;9.918;2022-09-13T05:23:04;11.50;99.90
25050;DHT22;13046;49.814;9.918;2022-09-13T09:55:31;11.60;99.90
25050;DHT22;13046;49.814;9.918;2022-09-13T09:58:01;19.30;99.90
25050;DHT22;13046;49.814;9.918;2022-09-13T10:02:59;19.70;99.90
25050;DHT22;13046;49.814;9.918;2022-09-13T10:18:05;20.10;99.90
25050;DHT22;13046;49.814;9.918;2022-09-13T10:20:33;21.00;99.90
25050;DHT22;13046;49.814;9.918;2022-09-13T10:25:42;20.40;99.90
25050;DHT22;13046;49.814;9.918;2022-09-13T10:28:17;20.30;99.90
25050;DHT22;13046;49.814;9.918;2022-09-13T10:30:51;20.30;99.90
25050;DHT22;13046;49.814;9.918;2022-09-13T10:33:43;20.20;99.90
25050;DHT22;13046;49.814;9.918;2022-09-13T10:39:04;20.10;99.90
25050;DHT22;13046;49.814;9.918;2022-09-13T10:41:34;19.90;99.90
25050;DHT22;13046;49.814;9.918;2022-09-13T10:44:05;19.80;99.90
25050;DHT22;13046;49.814;9.918;2022-09-13T10:46:37;19.80;99.90
25050;DHT22;13046;49.814;9.918;2022-09-13T12:05:25;19.40;99.90
25050;DHT22;13046;49.814;9.918;2022-09-13T12:08:25;20.00;99.90
25050;DHT22;13046;49.814;9.918;2022-09-13T12:54:42;21.50;99.90
25050;DHT22;13046;49.814;9.918;2022-09-13T13:00:29;21.40;99.90
25050;DHT22;13046;49.814;9.918;2022-09-13T13:05:47;21.30;99.90
25050;DHT22;13046;49.814;9.918;2022-09-13T13:08:25;21.20;99.90
25050;DHT22;13046;49.814;9.918;2022-09-13T17:11:22;21.20;99.90
25050;DHT22;13046;49.814;9.918;2022-09-13T17:13:48;19.70;99.90
25050;DHT22;13046;49.814;9.918;2022-09-13T19:38:32;19.60;99.90
25050;DHT22;13046;49.814;9.918;2022-09-13T19:40:59;18.30;99.90
25050;DHT22;13046;49.814;9.918;2022-09-13T19:43:29;18.20;99.90
25050;DHT22;13046;49.814;9.918;2022-09-13T19:46:00;18.20;99.90
25050;DHT22;13046;49.814;9.918;2022-09-13T19:48:27;18.20;99.90
25050;DHT22;13046;49.814;9.918;2022-09-13T19:50:53;18.10;99.90
25050;DHT22;13046;49.814;9.918;2022-09-13T19:53:20;18.10;99.90
25050;DHT22;13046;49.814;9.918;2022-09-13T19:55:46;18.10;99.90
25050;DHT22;13046;49.814;9.918;2022-09-13T19:58:15;18.10;99.90
25050;DHT22;13046;49.814;9.918;2022-09-13T20:00:42;18.10;99.90
25050;DHT22;13046;49.814;9.918;2022-09-13T20:03:08;18.10;99.90
25050;DHT22;13046;49.814;9.918;2022-09-13T20:05:35;18.10;99.90
25050;DHT22;13046;49.814;9.918;2022-09-13T20:08:01;18.10;99.90
25050;DHT22;13046;49.814;9.918;2022-09-13T20:10:28;18.10;99.90
25050;DHT22;13046;49.814;9.918;2022-09-13T20:12:56;18.10;99.90
25050;DHT22;13046;49.814;9.918;2022-09-13T20:15:23;18.10;99.90
25050;DHT22;13046;49.814;9.918;2022-09-13T20:17:50;18.10;99.90
25050;DHT22;13046;49.814;9.918;2022-09-13T20:20:16;18.00;99.90
25050;DHT22;13046;49.814;9.918;2022-09-13T20:22:42;18.00;99.90
25050;DHT22;13046;49.814;9.918;2022-09-13T20:25:08;18.00;99.90
25050;DHT22;13046;49.814;9.918;2022-09-13T20:27:34;18.00;99.90
25050;DHT22;13046;49.814;9.918;2022-09-13T20:30:03;18.00;99.90
25050;DHT22;13046;49.814;9.918;2022-09-13T20:32:29;18.00;99.90
25050;DHT22;13046;49.814;9.918;2022-09-13T20:34:55;18.00;99.90
25050;DHT22;13046;49.814;9.918;2022-09-13T20:37:22;17.90;99.90
25050;DHT22;13046;49.814;9.918;2022-09-13T20:39:48;17.90;99.90
25050;DHT22;13046;49.814;9.918;2022-09-13T20:42:14;17.90;99.90
25050;DHT22;13046;49.814;9.918;2022-09-13T20:44:41;17.90;99.90
25050;DHT22;13046;49.814;9.918;2022-09-13T20:47:07;17.90;99.90
25050;DHT22;13046;49.814;9.918;2022-09-13T20:49:33;17.80;99.90
25050;DHT22;13046;49.814;9.918;2022-09-13T20:51:59;17.80;99.90
25050;DHT22;13046;49.814;9.918;2022-09-13T20:54:25;17.80;99.90
25050;DHT22;13046;49.814;9.918;2022-09-13T20:56:50;17.80;99.90
25050;DHT22;13046;49.814;9.918;2022-09-13T20:59:16;17.80;99.90
25050;DHT22;13046;49.814;9.918;2022-09-13T21:01:42;17.70;99.90
25050;DHT22;13046;49.814;9.918;2022-09-13T21:04:08;17.70;99.90
25050;DHT22;13046;49.814;9.918;2022-09-13T21:06:39;17.70;99.90
25050;DHT22;13046;49.814;9.918;2022-09-13T21:09:25;17.70;99.90
25050;DHT22;13046;49.814;9.918;2022-09-13T21:11:51;17.80;99.90
25050;DHT22;13046;49.814;9.918;2022-09-13T21:14:17;17.80;99.90
25050;DHT22;13046;49.814;9.918;2022-09-13T21:16:42;17.70;99.90
25050;DHT22;13046;49.814;9.918;2022-09-13T21:19:08;17.80;99.90
25050;DHT22;13046;49.814;9.918;2022-09-13T21:21:36;17.70;99.90
25050;DHT22;13046;49.814;9.918;2022-09-13T21:24:04;17.70;99.90
25050;DHT22;13046;49.814;9.918;2022-09-13T21:26:30;17.60;99.90
25050;DHT22;13046;49.814;9.918;2022-09-13T21:28:57;17.70;99.90
25050;DHT22;13046;49.814;9.918;2022-09-13T21:31:25;17.60;99.90
25050;DHT22;13046;49.814;9.918;2022-09-13T21:34:02;17.70;99.90
25050;DHT22;13046;49.814;9.918;2022-09-13T21:36:30;17.60;99.90
25050;DHT22;13046;49.814;9.918;2022-09-13T21:38:56;17.70;99.90
25050;DHT22;13046;49.814;9.918;2022-09-13T21:41:24;17.70;99.90
25050;DHT22;13046;49.814;9.918;2022-09-13T21:43:50;17.70;99.90
25050;DHT22;13046;49.814;9.918;2022-09-13T21:46:21;17.70;99.90
25050;DHT22;13046;49.814;9.918;2022-09-13T21:48:50;17.70;99.90
25050;DHT22;13046;49.814;9.918;2022-09-13T21:51:27;17.70;99.90
25050;DHT22;13046;49.814;9.918;2022-09-13T21:53:55;17.70;99.90
25050;DHT22;13046;49.814;9.918;2022-09-13T21:56:22;17.70;99.90
25050;DHT22;13046;49.814;9.918;2022-09-13T21:58:49;17.60;99.90
25050;DHT22;13046;49.814;9.918;2022-09-13T22:01:17;17.60;99.90
25050;DHT22;13046;49.814;9.918;2022-09-13T22:03:44;17.60;99.90
25050;DHT22;13046;49.814;9.918;2022-09-13T22:06:11;17.60;99.90
25050;DHT22;13046;49.814;9.918;2022-09-13T22:08:42;17.50;99.90
25050;DHT22;13046;49.814;9.918;2022-09-13T22:11:16;17.50;99.90
25050;DHT22;13046;49.814;9.918;2022-09-13T22:13:42;17.50;99.90
25050;DHT22;13046;49.814;9.918;2022-09-13T22:16:18;17.50;99.90
25050;DHT22;13046;49.814;9.918;2022-09-13T22:18:49;17.50;99.90
25050;DHT22;13046;49.814;9.918;2022-09-13T22:21:19;17.50;99.90
25050;DHT22;13046;49.814;9.918;2022-09-13T22:23:45;17.60;99.90
25050;DHT22;13046;49.814;9.918;2022-09-13T22:26:13;17.60;99.90
25050;DHT22;13046;49.814;9.918;2022-09-13T22:28:39;17.60;99.90
25050;DHT22;13046;49.814;9.918;2022-09-13T22:31:18;17.50;99.90
25050;DHT22;13046;49.814;9.918;2022-09-13T22:33:45;17.50;99.90
25050;DHT22;13046;49.814;9.918;2022-09-13T22:36:14;17.50;99.90
